sensor_id;sensor_type;location;lat;lon;timestamp;temperature;humidity
56753;DHT22;42627;42.646;23.642;2023-08-07T02:49:52;19.30;77.50
56753;DHT22;42627;42.646;23.642;2023-08-07T02:51:53;17.60;99.40
56753;DHT22;42627;42.646;23.642;2023-08-07T02:53:53;17.40;99.80
56753;DHT22;42627;42.646;23.642;2023-08-07T02:55:54;17.40;99.70
56753;DHT22;42627;42.646;23.642;2023-08-07T02:57:55;17.30;99.90
56753;DHT22;42627;42.646;23.642;2023-08-07T02:59:55;17.30;99.90
56753;DHT22;42627;42.646;23.642;2023-08-07T03:01:56;17.30;99.80
56753;DHT22;42627;42.646;23.642;2023-08-07T03:03:56;17.30;99.20
56753;DHT22;42627;42.646;23.642;2023-08-07T03:05:57;17.30;99.80
56753;DHT22;42627;42.646;23.642;2023-08-07T03:07:58;17.40;99.80
56753;DHT22;42627;42.646;23.642;2023-08-07T03:09:58;17.40;99.80
56753;DHT22;42627;42.646;23.642;2023-08-07T03:11:59;17.40;99.90
56753;DHT22;42627;42.646;23.642;2023-08-07T03:14:03;17.40;99.90
56753;DHT22;42627;42.646;23.642;2023-08-07T03:16:05;17.30;99.90
56753;DHT22;42627;42.646;23.642;2023-08-07T03:18:06;17.30;99.90
56753;DHT22;42627;42.646;23.642;2023-08-07T03:20:07;17.30;99.90
56753;DHT22;42627;42.646;23.642;2023-08-07T03:22:08;17.30;99.60
56753;DHT22;42627;42.646;23.642;2023-08-07T03:24:08;17.30;99.90
56753;DHT22;42627;42.646;23.642;2023-08-07T03:26:11;17.30;99.90
56753;DHT22;42627;42.646;23.642;2023-08-07T03:28:12;17.30;99.90
56753;DHT22;42627;42.646;23.642;2023-08-07T03:30:13;17.30;99.90
56753;DHT22;42627;42.646;23.642;2023-08-07T03:32:14;17.30;99.60
56753;DHT22;42627;42.646;23.642;2023-08-07T03:34:14;17.40;99.60
56753;DHT22;42627;42.646;23.642;2023-08-07T03:36:15;17.30;99.90
56753;DHT22;42627;42.646;23.642;2023-08-07T03:38:16;17.30;99.90
56753;DHT22;42627;42.646;23.642;2023-08-07T03:40:16;17.30;99.30
56753;DHT22;42627;42.646;23.642;2023-08-07T03:42:17;17.20;99.60
56753;DHT22;42627;42.646;23.642;2023-08-07T03:44:17;17.30;99.30
56753;DHT22;42627;42.646;23.642;2023-08-07T03:46:18;17.20;98.80
56753;DHT22;42627;42.646;23.642;2023-08-07T03:48:19;17.20;99.20
56753;DHT22;42627;42.646;23.642;2023-08-07T03:50:20;17.30;99.20
56753;DHT22;42627;42.646;23.642;2023-08-07T03:52:20;17.30;99.90
56753;DHT22;42627;42.646;23.642;2023-08-07T03:54:21;17.20;99.90
56753;DHT22;42627;42.646;23.642;2023-08-07T03:58:23;17.30;99.90
56753;DHT22;42627;42.646;23.642;2023-08-07T10:45:45;17.30;99.80
56753;DHT22;42627;42.646;23.642;2023-08-07T10:50:02;23.80;53.20
56753;DHT22;42627;42.646;23.642;2023-08-07T11:00:46;23.90;51.70
56753;DHT22;42627;42.646;23.642;2023-08-07T11:46:15;24.30;50.00
56753;DHT22;42627;42.646;23.642;2023-08-07T11:48:16;24.50;54.10
56753;DHT22;42627;42.646;23.642;2023-08-07T11:52:18;24.60;52.70
56753;DHT22;42627;42.646;23.642;2023-08-07T11:54:45;24.70;53.00
56753;DHT22;42627;42.646;23.642;2023-08-07T11:57:14;24.70;54.90
56753;DHT22;42627;42.646;23.642;2023-08-07T12:01:21;24.90;53.60
56753;DHT22;42627;42.646;23.642;2023-08-07T12:03:26;24.90;54.50
56753;DHT22;42627;42.646;23.642;2023-08-07T12:05:27;25.00;51.10
56753;DHT22;42627;42.646;23.642;2023-08-07T12:39:29;25.40;51.40
56753;DHT22;42627;42.646;23.642;2023-08-07T12:45:32;25.40;55.00
56753;DHT22;42627;42.646;23.642;2023-08-07T12:47:33;25.50;52.60
56753;DHT22;42627;42.646;23.642;2023-08-07T12:49:34;25.40;52.20
56753;DHT22;42627;42.646;23.642;2023-08-07T12:51:34;25.30;52.40
56753;DHT22;42627;42.646;23.642;2023-08-07T12:53:54;25.20;53.30
56753;DHT22;42627;42.646;23.642;2023-08-07T12:56:22;25.20;53.20
56753;DHT22;42627;42.646;23.642;2023-08-07T12:58:43;25.10;54.00
56753;DHT22;42627;42.646;23.642;2023-08-07T13:00:43;25.20;54.20
56753;DHT22;42627;42.646;23.642;2023-08-07T13:02:46;25.30;54.80
56753;DHT22;42627;42.646;23.642;2023-08-07T13:04:47;25.40;52.70
56753;DHT22;42627;42.646;23.642;2023-08-07T13:06:48;25.50;53.00
56753;DHT22;42627;42.646;23.642;2023-08-07T13:44:49;25.90;53.30
56753;DHT22;42627;42.646;23.642;2023-08-07T13:46:49;25.80;52.80
56753;DHT22;42627;42.646;23.642;2023-08-07T13:50:51;25.80;54.50
56753;DHT22;42627;42.646;23.642;2023-08-07T13:55:20;25.70;53.10
56753;DHT22;42627;42.646;23.642;2023-08-07T13:57:20;25.60;53.50
56753;DHT22;42627;42.646;23.642;2023-08-07T13:59:26;25.60;53.90
56753;DHT22;42627;42.646;23.642;2023-08-07T14:01:27;25.60;53.40
56753;DHT22;42627;42.646;23.642;2023-08-07T14:03:50;25.70;54.80
56753;DHT22;42627;42.646;23.642;2023-08-07T14:15:20;25.70;53.60
56753;DHT22;42627;42.646;23.642;2023-08-07T14:21:27;25.70;53.80
56753;DHT22;42627;42.646;23.642;2023-08-07T14:23:27;25.70;53.90
56753;DHT22;42627;42.646;23.642;2023-08-07T14:25:28;25.70;54.10
56753;DHT22;42627;42.646;23.642;2023-08-07T14:27:31;25.70;55.00
56753;DHT22;42627;42.646;23.642;2023-08-07T14:31:37;25.70;54.60
56753;DHT22;42627;42.646;23.642;2023-08-07T14:33:38;25.60;55.70
56753;DHT22;42627;42.646;23.642;2023-08-07T14:35:39;25.60;55.80
56753;DHT22;42627;42.646;23.642;2023-08-07T14:37:40;25.60;55.20
56753;DHT22;42627;42.646;23.642;2023-08-07T14:39:41;25.60;54.50
56753;DHT22;42627;42.646;23.642;2023-08-07T14:41:42;25.60;55.70
56753;DHT22;42627;42.646;23.642;2023-08-07T14:43:42;25.60;55.40
56753;DHT22;42627;42.646;23.642;2023-08-07T14:45:43;25.70;55.00
56753;DHT22;42627;42.646;23.642;2023-08-07T14:47:44;25.70;54.40
56753;DHT22;42627;42.646;23.642;2023-08-07T14:49:47;25.60;55.20
56753;DHT22;42627;42.646;23.642;2023-08-07T14:51:50;25.70;55.10
56753;DHT22;42627;42.646;23.642;2023-08-07T14:54:09;25.70;56.00
56753;DHT22;42627;42.646;23.642;2023-08-07T14:56:10;25.70;53.70
56753;DHT22;42627;42.646;23.642;2023-08-07T14:58:11;25.70;54.50
56753;DHT22;42627;42.646;23.642;2023-08-07T15:00:12;25.70;55.10
56753;DHT22;42627;42.646;23.642;2023-08-07T15:24:35;24.60;58.80
56753;DHT22;42627;42.646;23.642;2023-08-07T15:26:36;24.50;59.80
56753;DHT22;42627;42.646;23.642;2023-08-07T15:28:37;24.50;60.50
56753;DHT22;42627;42.646;23.642;2023-08-07T15:30:37;24.50;59.80
56753;DHT22;42627;42.646;23.642;2023-08-07T15:32:38;24.50;60.20
56753;DHT22;42627;42.646;23.642;2023-08-07T15:34:44;24.40;59.30
56753;DHT22;42627;42.646;23.642;2023-08-07T15:41:05;24.40;59.20
56753;DHT22;42627;42.646;23.642;2023-08-07T15:43:07;24.30;60.30
56753;DHT22;42627;42.646;23.642;2023-08-07T15:45:08;24.20;59.20
56753;DHT22;42627;42.646;23.642;2023-08-07T15:47:09;24.20;59.40
56753;DHT22;42627;42.646;23.642;2023-08-07T15:49:19;24.20;60.30
56753;DHT22;42627;42.646;23.642;2023-08-07T15:58:04;24.10;60.60
56753;DHT22;42627;42.646;23.642;2023-08-07T16:00:06;24.10;60.70
56753;DHT22;42627;42.646;23.642;2023-08-07T16:02:08;24.00;60.80
56753;DHT22;42627;42.646;23.642;2023-08-07T16:04:24;24.00;60.70
56753;DHT22;42627;42.646;23.642;2023-08-07T16:06:25;23.90;61.50
56753;DHT22;42627;42.646;23.642;2023-08-07T16:08:26;23.80;61.60
56753;DHT22;42627;42.646;23.642;2023-08-07T16:10:27;23.70;61.90
56753;DHT22;42627;42.646;23.642;2023-08-07T16:12:28;23.70;62.30
56753;DHT22;42627;42.646;23.642;2023-08-07T16:14:29;23.60;62.30
56753;DHT22;42627;42.646;23.642;2023-08-07T16:16:29;23.60;62.50
56753;DHT22;42627;42.646;23.642;2023-08-07T16:18:30;23.50;62.40
56753;DHT22;42627;42.646;23.642;2023-08-07T16:20:30;23.50;62.80
56753;DHT22;42627;42.646;23.642;2023-08-07T16:22:31;23.40;63.20
56753;DHT22;42627;42.646;23.642;2023-08-07T16:24:33;23.40;62.90
56753;DHT22;42627;42.646;23.642;2023-08-07T17:18:20;22.00;68.00
56753;DHT22;42627;42.646;23.642;2023-08-07T17:20:21;21.90;68.00
56753;DHT22;42627;42.646;23.642;2023-08-07T17:22:21;21.90;68.10
56753;DHT22;42627;42.646;23.642;2023-08-07T17:24:22;21.90;68.40
56753;DHT22;42627;42.646;23.642;2023-08-07T17:26:23;21.90;68.90
56753;DHT22;42627;42.646;23.642;2023-08-07T17:28:23;21.80;68.90
56753;DHT22;42627;42.646;23.642;2023-08-07T17:30:24;21.70;69.00
56753;DHT22;42627;42.646;23.642;2023-08-07T18:26:49;20.70;74.30
